sensor_id;sensor_type;location;lat;lon;timestamp;temperature;humidity
14154;DHT22;7157;53.144;7.570;2023-03-03T00:07:28;3.57;93.86
14154;DHT22;7157;53.144;7.570;2023-03-03T00:17:32;3.26;94.81
14154;DHT22;7157;53.144;7.570;2023-03-03T00:27:35;3.42;94.88
14154;DHT22;7157;53.144;7.570;2023-03-03T00:37:39;3.43;95.41
14154;DHT22;7157;53.144;7.570;2023-03-03T00:47:42;3.49;94.92
14154;DHT22;7157;53.144;7.570;2023-03-03T00:57:46;3.46;94.87
14154;DHT22;7157;53.144;7.570;2023-03-03T01:07:49;3.40;94.96
14154;DHT22;7157;53.144;7.570;2023-03-03T01:17:53;3.44;94.88
14154;DHT22;7157;53.144;7.570;2023-03-03T01:27:56;3.32;95.50
14154;DHT22;7157;53.144;7.570;2023-03-03T01:38:01;3.33;95.62
14154;DHT22;7157;53.144;7.570;2023-03-03T01:48:05;3.28;95.84
14154;DHT22;7157;53.144;7.570;2023-03-03T01:58:14;3.30;96.01
14154;DHT22;7157;53.144;7.570;2023-03-03T02:08:21;3.30;96.01
14154;DHT22;7157;53.144;7.570;2023-03-03T02:18:26;3.30;96.37
14154;DHT22;7157;53.144;7.570;2023-03-03T02:28:33;3.34;96.16
14154;DHT22;7157;53.144;7.570;2023-03-03T02:38:40;3.28;96.55
14154;DHT22;7157;53.144;7.570;2023-03-03T02:48:45;3.35;96.79
14154;DHT22;7157;53.144;7.570;2023-03-03T02:58:48;3.36;96.17
14154;DHT22;7157;53.144;7.570;2023-03-03T03:08:52;3.20;96.53
14154;DHT22;7157;53.144;7.570;2023-03-03T03:18:55;3.26;96.78
14154;DHT22;7157;53.144;7.570;2023-03-03T03:28:59;3.29;96.49
14154;DHT22;7157;53.144;7.570;2023-03-03T03:39:02;3.21;96.99
14154;DHT22;7157;53.144;7.570;2023-03-03T03:49:08;3.10;96.91
14154;DHT22;7157;53.144;7.570;2023-03-03T03:59:10;3.13;96.87
14154;DHT22;7157;53.144;7.570;2023-03-03T04:09:14;3.16;97.00
14154;DHT22;7157;53.144;7.570;2023-03-03T04:19:17;3.20;97.24
14154;DHT22;7157;53.144;7.570;2023-03-03T04:29:21;3.17;97.33
14154;DHT22;7157;53.144;7.570;2023-03-03T04:39:24;3.21;97.52
14154;DHT22;7157;53.144;7.570;2023-03-03T04:49:29;3.19;97.48
14154;DHT22;7157;53.144;7.570;2023-03-03T04:59:31;3.09;97.81
14154;DHT22;7157;53.144;7.570;2023-03-03T05:09:36;2.96;97.97
14154;DHT22;7157;53.144;7.570;2023-03-03T05:19:38;2.88;97.83
14154;DHT22;7157;53.144;7.570;2023-03-03T05:29:43;2.85;98.14
14154;DHT22;7157;53.144;7.570;2023-03-03T05:39:45;2.91;98.31
14154;DHT22;7157;53.144;7.570;2023-03-03T05:49:49;2.80;98.44
14154;DHT22;7157;53.144;7.570;2023-03-03T05:59:52;2.81;98.77
14154;DHT22;7157;53.144;7.570;2023-03-03T06:09:56;2.68;99.20
14154;DHT22;7157;53.144;7.570;2023-03-03T06:19:59;2.59;99.11
14154;DHT22;7157;53.144;7.570;2023-03-03T06:30:04;2.59;99.80
14154;DHT22;7157;53.144;7.570;2023-03-03T06:40:08;2.72;98.91
14154;DHT22;7157;53.144;7.570;2023-03-03T06:50:12;2.78;99.06
14154;DHT22;7157;53.144;7.570;2023-03-03T07:00:16;2.90;98.91
14154;DHT22;7157;53.144;7.570;2023-03-03T07:10:24;3.14;98.52
14154;DHT22;7157;53.144;7.570;2023-03-03T07:20:30;3.09;98.52
14154;DHT22;7157;53.144;7.570;2023-03-03T07:30:35;3.02;98.52
14154;DHT22;7157;53.144;7.570;2023-03-03T07:40:41;3.14;97.91
14154;DHT22;7157;53.144;7.570;2023-03-03T07:50:48;2.93;98.74
14154;DHT22;7157;53.144;7.570;2023-03-03T08:11:25;3.54;97.73
14154;DHT22;7157;53.144;7.570;2023-03-03T08:21:28;3.71;97.80
14154;DHT22;7157;53.144;7.570;2023-03-03T08:31:33;3.67;98.13
14154;DHT22;7157;53.144;7.570;2023-03-03T08:41:42;3.78;97.60
14154;DHT22;7157;53.144;7.570;2023-03-03T08:51:47;3.94;97.60
14154;DHT22;7157;53.144;7.570;2023-03-03T09:01:50;4.37;97.13
14154;DHT22;7157;53.144;7.570;2023-03-03T09:11:57;4.62;97.06
14154;DHT22;7157;53.144;7.570;2023-03-03T09:22:08;4.65;96.67
14154;DHT22;7157;53.144;7.570;2023-03-03T09:32:23;5.00;96.19
14154;DHT22;7157;53.144;7.570;2023-03-03T09:42:40;5.17;96.43
14154;DHT22;7157;53.144;7.570;2023-03-03T09:52:51;5.60;95.68
14154;DHT22;7157;53.144;7.570;2023-03-03T10:03:08;5.60;95.50
14154;DHT22;7157;53.144;7.570;2023-03-03T10:13:24;5.39;96.43
14154;DHT22;7157;53.144;7.570;2023-03-03T10:23:40;5.85;95.55
14154;DHT22;7157;53.144;7.570;2023-03-03T10:33:53;5.94;94.78
14154;DHT22;7157;53.144;7.570;2023-03-03T10:44:07;5.84;94.99
14154;DHT22;7157;53.144;7.570;2023-03-03T10:54:27;6.55;92.59
14154;DHT22;7157;53.144;7.570;2023-03-03T11:04:43;6.79;92.30
14154;DHT22;7157;53.144;7.570;2023-03-03T11:14:56;6.72;91.09
14154;DHT22;7157;53.144;7.570;2023-03-03T11:25:23;7.63;90.58
14154;DHT22;7157;53.144;7.570;2023-03-03T11:35:34;8.31;86.86
14154;DHT22;7157;53.144;7.570;2023-03-03T11:45:41;9.52;84.96
14154;DHT22;7157;53.144;7.570;2023-03-03T11:55:51;9.07;83.76
14154;DHT22;7157;53.144;7.570;2023-03-03T12:06:09;8.80;84.00
14154;DHT22;7157;53.144;7.570;2023-03-03T12:16:23;8.27;84.57
14154;DHT22;7157;53.144;7.570;2023-03-03T12:26:32;8.44;83.36
14154;DHT22;7157;53.144;7.570;2023-03-03T12:36:54;8.41;84.19
14154;DHT22;7157;53.144;7.570;2023-03-03T12:47:04;11.28;69.13
14154;DHT22;7157;53.144;7.570;2023-03-03T12:57:15;13.73;58.78
14154;DHT22;7157;53.144;7.570;2023-03-03T13:07:25;10.00;71.38
14154;DHT22;7157;53.144;7.570;2023-03-03T13:17:39;9.33;72.20
14154;DHT22;7157;53.144;7.570;2023-03-03T13:27:44;8.96;71.98
14154;DHT22;7157;53.144;7.570;2023-03-03T13:37:52;9.25;69.61
14154;DHT22;7157;53.144;7.570;2023-03-03T13:48:02;9.47;65.73
14154;DHT22;7157;53.144;7.570;2023-03-03T13:58:19;12.16;56.87
14154;DHT22;7157;53.144;7.570;2023-03-03T14:08:41;12.06;54.60
14154;DHT22;7157;53.144;7.570;2023-03-03T14:18:53;11.53;53.63
14154;DHT22;7157;53.144;7.570;2023-03-03T14:29:22;11.04;58.60
14154;DHT22;7157;53.144;7.570;2023-03-03T14:39:34;11.89;56.48
14154;DHT22;7157;53.144;7.570;2023-03-03T14:49:38;11.63;56.00
14154;DHT22;7157;53.144;7.570;2023-03-03T14:59:55;9.88;61.57
14154;DHT22;7157;53.144;7.570;2023-03-03T15:09:58;9.51;64.10
14154;DHT22;7157;53.144;7.570;2023-03-03T15:20:36;9.37;65.36
14154;DHT22;7157;53.144;7.570;2023-03-03T15:30:46;8.76;70.58
14154;DHT22;7157;53.144;7.570;2023-03-03T15:41:00;8.34;71.55
14154;DHT22;7157;53.144;7.570;2023-03-03T15:51:12;8.26;69.74
14154;DHT22;7157;53.144;7.570;2023-03-03T16:01:24;7.89;73.30
14154;DHT22;7157;53.144;7.570;2023-03-03T16:11:33;7.86;73.67
14154;DHT22;7157;53.144;7.570;2023-03-03T16:21:53;7.64;74.39
14154;DHT22;7157;53.144;7.570;2023-03-03T16:32:04;7.75;74.07
14154;DHT22;7157;53.144;7.570;2023-03-03T16:42:16;7.71;76.34
14154;DHT22;7157;53.144;7.570;2023-03-03T16:52:26;7.86;76.81
14154;DHT22;7157;53.144;7.570;2023-03-03T17:02:54;7.70;77.97
14154;DHT22;7157;53.144;7.570;2023-03-03T17:13:17;7.54;78.35
14154;DHT22;7157;53.144;7.570;2023-03-03T17:23:44;7.39;79.40
14154;DHT22;7157;53.144;7.570;2023-03-03T17:34:01;7.31;81.17
14154;DHT22;7157;53.144;7.570;2023-03-03T17:44:14;7.44;81.11
14154;DHT22;7157;53.144;7.570;2023-03-03T17:54:45;7.33;83.10
14154;DHT22;7157;53.144;7.570;2023-03-03T18:15:28;7.40;82.94
14154;DHT22;7157;53.144;7.570;2023-03-03T18:25:52;7.50;81.27
14154;DHT22;7157;53.144;7.570;2023-03-03T18:36:11;7.52;81.09
14154;DHT22;7157;53.144;7.570;2023-03-03T18:46:49;7.44;81.09
14154;DHT22;7157;53.144;7.570;2023-03-03T18:57:11;7.22;81.56
14154;DHT22;7157;53.144;7.570;2023-03-03T19:07:20;7.30;80.72
14154;DHT22;7157;53.144;7.570;2023-03-03T19:17:48;7.28;80.31
14154;DHT22;7157;53.144;7.570;2023-03-03T19:28:08;7.23;80.30
14154;DHT22;7157;53.144;7.570;2023-03-03T19:38:23;7.25;80.67
14154;DHT22;7157;53.144;7.570;2023-03-03T19:48:33;7.34;80.10
14154;DHT22;7157;53.144;7.570;2023-03-03T19:58:45;7.22;80.96
14154;DHT22;7157;53.144;7.570;2023-03-03T20:08:58;7.25;81.41
14154;DHT22;7157;53.144;7.570;2023-03-03T20:19:15;7.22;81.59
14154;DHT22;7157;53.144;7.570;2023-03-03T20:29:43;7.22;81.23
14154;DHT22;7157;53.144;7.570;2023-03-03T20:39:58;7.18;80.59
14154;DHT22;7157;53.144;7.570;2023-03-03T20:50:10;7.20;79.54
14154;DHT22;7157;53.144;7.570;2023-03-03T21:00:21;7.16;80.52
14154;DHT22;7157;53.144;7.570;2023-03-03T21:10:29;7.18;80.68
14154;DHT22;7157;53.144;7.570;2023-03-03T21:20:33;7.18;80.75
14154;DHT22;7157;53.144;7.570;2023-03-03T21:31:05;7.16;80.91
14154;DHT22;7157;53.144;7.570;2023-03-03T21:41:08;7.26;80.88
14154;DHT22;7157;53.144;7.570;2023-03-03T21:51:13;7.27;81.20
14154;DHT22;7157;53.144;7.570;2023-03-03T22:01:15;7.27;81.78
14154;DHT22;7157;53.144;7.570;2023-03-03T22:11:20;7.22;82.14
14154;DHT22;7157;53.144;7.570;2023-03-03T22:21:23;7.23;81.59
14154;DHT22;7157;53.144;7.570;2023-03-03T22:31:27;7.29;81.65
14154;DHT22;7157;53.144;7.570;2023-03-03T22:41:30;7.19;82.21
14154;DHT22;7157;53.144;7.570;2023-03-03T22:51:35;7.23;81.88
14154;DHT22;7157;53.144;7.570;2023-03-03T23:01:37;7.23;81.14
14154;DHT22;7157;53.144;7.570;2023-03-03T23:11:41;7.19;80.98
14154;DHT22;7157;53.144;7.570;2023-03-03T23:21:44;7.19;81.74
14154;DHT22;7157;53.144;7.570;2023-03-03T23:31:48;7.23;81.05
14154;DHT22;7157;53.144;7.570;2023-03-03T23:41:50;7.14;81.20
14154;DHT22;7157;53.144;7.570;2023-03-03T23:51:54;7.12;81.17
